createdAt,value
2023-01-29T00:00:10.631Z,100769.42
2023-01-29T00:03:01.623Z,100767.72
2023-01-29T00:05:29.764Z,100769.80
2023-01-29T00:07:58.029Z,100768.09
2023-01-29T00:10:26.498Z,100769.27
2023-01-29T00:12:55.317Z,100769.27
2023-01-29T00:15:23.825Z,100770.78
2023-01-29T00:17:52.243Z,100771.98
2023-01-29T00:20:20.347Z,100774.76
2023-01-29T00:22:48.841Z,100779.56
2023-01-29T00:25:16.832Z,100781.48
2023-01-29T00:27:44.770Z,100781.81
2023-01-29T00:30:13.531Z,100785.56
2023-01-29T00:32:42.219Z,100788.48
2023-01-29T00:35:10.381Z,100793.16
2023-01-29T00:37:38.771Z,100793.30
2023-01-29T00:40:07.388Z,100795.17
2023-01-29T00:42:53.927Z,100793.92
2023-01-29T00:45:22.346Z,100794.73
2023-01-29T00:47:51.109Z,100793.15
2023-01-29T00:50:19.592Z,100790.06
2023-01-29T00:52:49.652Z,100791.61
2023-01-29T00:55:18.353Z,100793.30
2023-01-29T00:57:47.186Z,100797.21
2023-01-29T01:00:19.181Z,100799.82
2023-01-29T01:03:05.611Z,100798.11
2023-01-29T01:05:34.825Z,100795.52
2023-01-29T01:08:02.844Z,100796.34
2023-01-29T01:10:33.099Z,100802.86
2023-01-29T01:13:04.662Z,100807.15
2023-01-29T01:15:37.231Z,100810.06
2023-01-29T01:18:06.220Z,100808.85
2023-01-29T01:20:35.835Z,100808.00
2023-01-29T01:23:04.719Z,100808.20
2023-01-29T01:25:32.849Z,100807.89
2023-01-29T01:28:03.565Z,100806.72
2023-01-29T01:30:33.094Z,100804.09
2023-01-29T01:33:02.387Z,100805.57
2023-01-29T01:35:32.122Z,100806.58
2023-01-29T01:38:00.077Z,100809.82
2023-01-29T01:40:28.170Z,100808.30
2023-01-29T01:42:58.979Z,100807.09
2023-01-29T01:45:30.058Z,100811.37
2023-01-29T01:48:21.424Z,100817.38
2023-01-29T01:50:58.604Z,100816.86
2023-01-29T01:53:34.453Z,100820.12
2023-01-29T01:56:08.017Z,100823.91
2023-01-29T01:58:59.369Z,100828.02
2023-01-29T02:01:30.530Z,100828.20
2023-01-29T02:04:26.146Z,100832.84
2023-01-29T02:07:14.694Z,100833.54
2023-01-29T02:09:51.461Z,100837.82
2023-01-29T02:12:21.068Z,100843.30
2023-01-29T02:14:51.427Z,100842.61
2023-01-29T02:17:20.570Z,100846.55
2023-01-29T02:19:51.322Z,100852.42
2023-01-29T02:22:46.131Z,100855.86
2023-01-29T02:25:39.202Z,100857.06
2023-01-29T02:28:14.125Z,100860.16
2023-01-29T02:31:04.272Z,100861.89
2023-01-29T02:33:45.640Z,100858.44
2023-01-29T02:36:27.873Z,100861.65
2023-01-29T02:39:35.625Z,100869.54
2023-01-29T02:42:22.959Z,100869.48
2023-01-29T02:45:00.517Z,100872.64
2023-01-29T02:47:48.780Z,100876.52
2023-01-29T02:50:23.961Z,100880.47
2023-01-29T02:53:05.817Z,100880.85
2023-01-29T02:55:46.761Z,100884.08
2023-01-29T02:58:30.463Z,100887.82
2023-01-29T03:01:05.911Z,100890.02
2023-01-29T03:03:41.221Z,100894.98
2023-01-29T03:06:32.057Z,100892.20
2023-01-29T03:09:05.372Z,100893.52
2023-01-29T03:11:40.248Z,100893.19
2023-01-29T03:14:17.042Z,100895.20
2023-01-29T03:16:45.324Z,100896.89
2023-01-29T03:19:38.808Z,100899.45
2023-01-29T03:22:16.640Z,100900.23
2023-01-29T03:25:10.721Z,100898.81
2023-01-29T03:28:03.890Z,100903.72
2023-01-29T03:31:00.174Z,100904.52
2023-01-29T03:33:52.679Z,100898.81
2023-01-29T03:37:04.152Z,100897.63
2023-01-29T03:39:32.200Z,100898.30
2023-01-29T03:42:17.141Z,100896.44
2023-01-29T03:44:57.498Z,100901.07
2023-01-29T03:47:50.612Z,100899.37
2023-01-29T03:50:21.411Z,100899.88
2023-01-29T03:53:17.169Z,100901.38
2023-01-29T03:56:09.256Z,100902.05
2023-01-29T03:58:44.279Z,100901.88
2023-01-29T04:01:24.390Z,100907.02
2023-01-29T04:04:02.021Z,100904.05
2023-01-29T04:06:34.369Z,100905.58
2023-01-29T04:09:12.486Z,100908.15
2023-01-29T04:11:48.325Z,100911.29
2023-01-29T04:14:17.983Z,100914.24
2023-01-29T04:16:51.563Z,100912.89
2023-01-29T04:19:48.066Z,100912.85
2023-01-29T04:22:28.077Z,100915.39
2023-01-29T04:25:02.643Z,100917.73
2023-01-29T04:28:00.216Z,100921.86
2023-01-29T04:30:52.537Z,100924.41
2023-01-29T04:33:40.132Z,100927.42
2023-01-29T04:36:14.656Z,100927.08
2023-01-29T04:39:01.013Z,100926.40
2023-01-29T04:41:43.489Z,100927.28
2023-01-29T04:44:26.391Z,100928.29
2023-01-29T04:47:22.092Z,100925.54
2023-01-29T04:49:58.919Z,100926.92
2023-01-29T04:53:12.394Z,100926.80
2023-01-29T04:56:09.146Z,100926.31
2023-01-29T04:58:42.555Z,100924.45
2023-01-29T05:01:15.093Z,100923.75
2023-01-29T05:03:50.027Z,100928.19
2023-01-29T05:06:19.240Z,100930.38
2023-01-29T05:08:50.030Z,100926.59
2023-01-29T05:11:21.345Z,100927.31
2023-01-29T05:13:49.543Z,100928.92
2023-01-29T05:16:24.640Z,100928.11
2023-01-29T05:18:53.510Z,100929.85
2023-01-29T05:21:24.220Z,100932.77
2023-01-29T05:24:17.455Z,100938.55
2023-01-29T05:27:07.236Z,100936.52
2023-01-29T05:29:35.422Z,100941.75
2023-01-29T05:32:04.087Z,100943.98
2023-01-29T05:34:32.338Z,100943.83
2023-01-29T05:37:00.580Z,100948.35
2023-01-29T05:39:28.577Z,100947.82
2023-01-29T05:41:56.582Z,100948.52
2023-01-29T05:44:24.733Z,100947.85
2023-01-29T05:46:53.425Z,100952.20
2023-01-29T05:49:22.610Z,100955.14
2023-01-29T05:51:50.646Z,100956.52
2023-01-29T05:54:18.833Z,100955.02
2023-01-29T05:56:46.913Z,100955.23
2023-01-29T05:59:16.224Z,100953.02
2023-01-29T06:01:44.449Z,100951.87
2023-01-29T06:04:12.521Z,100952.38
2023-01-29T06:06:41.119Z,100951.55
2023-01-29T06:09:11.167Z,100954.48
2023-01-29T06:11:40.004Z,100956.58
2023-01-29T06:14:08.193Z,100954.20
2023-01-29T06:16:36.353Z,100957.63
2023-01-29T06:19:04.310Z,100957.46
2023-01-29T06:21:32.735Z,100956.94
2023-01-29T06:24:01.448Z,100953.64
2023-01-29T06:26:29.786Z,100957.77
2023-01-29T06:28:58.412Z,100957.95
2023-01-29T06:31:38.791Z,100959.86
2023-01-29T06:34:08.302Z,100959.92
2023-01-29T06:36:36.588Z,100965.63
2023-01-29T06:39:04.846Z,100971.33
2023-01-29T06:41:33.754Z,100973.05
2023-01-29T06:44:01.772Z,100973.91
2023-01-29T06:46:30.077Z,100974.92
2023-01-29T06:49:00.431Z,100975.79
2023-01-29T06:51:28.717Z,100981.27
2023-01-29T06:53:57.129Z,100982.31
2023-01-29T06:56:25.376Z,100983.20
2023-01-29T06:58:53.687Z,100987.23
2023-01-29T07:01:35.069Z,100985.06
2023-01-29T07:04:04.336Z,100988.37
2023-01-29T07:06:33.181Z,100990.98
2023-01-29T07:09:01.751Z,100992.38
2023-01-29T07:11:29.812Z,100998.09
2023-01-29T07:13:58.307Z,100992.08
2023-01-29T07:16:27.204Z,100993.64
2023-01-29T07:18:55.426Z,101000.56
2023-01-29T07:21:23.872Z,100998.52
2023-01-29T07:23:52.192Z,101000.77
2023-01-29T07:26:20.278Z,101003.33
2023-01-29T07:28:48.503Z,100999.02
2023-01-29T07:31:16.551Z,100999.84
2023-01-29T07:33:45.425Z,101002.75
2023-01-29T07:36:13.854Z,101007.23
2023-01-29T07:38:42.180Z,101010.01
2023-01-29T07:41:12.811Z,101016.98
2023-01-29T07:43:41.090Z,101013.63
2023-01-29T07:46:09.354Z,101015.69
2023-01-29T07:48:38.109Z,101017.77
2023-01-29T07:51:06.579Z,101014.98
2023-01-29T07:53:34.621Z,101013.98
2023-01-29T07:56:03.486Z,101013.67
2023-01-29T07:58:33.482Z,101012.16
2023-01-29T08:01:08.075Z,101009.08
2023-01-29T08:03:36.602Z,101011.80
2023-01-29T08:06:04.926Z,101011.48
2023-01-29T08:08:33.517Z,101004.79
2023-01-29T08:11:05.764Z,101002.73
2023-01-29T08:13:34.149Z,101002.25
2023-01-29T08:16:03.765Z,101004.17
2023-01-29T08:18:32.060Z,101006.64
2023-01-29T08:21:04.162Z,101005.01
2023-01-29T08:23:32.344Z,101005.08
2023-01-29T08:26:03.811Z,101007.66
2023-01-29T08:28:32.242Z,101007.63
2023-01-29T08:31:00.525Z,101010.73
2023-01-29T08:33:38.921Z,101016.09
2023-01-29T08:36:08.626Z,101017.46
2023-01-29T08:38:36.791Z,101015.89
2023-01-29T08:41:05.786Z,101017.75
2023-01-29T08:43:37.303Z,101018.79
2023-01-29T08:46:05.910Z,101019.66
2023-01-29T08:48:34.453Z,101022.95
2023-01-29T08:51:03.153Z,101016.98
2023-01-29T08:53:32.353Z,101015.80
2023-01-29T08:56:00.471Z,101021.69
2023-01-29T08:58:28.755Z,101020.02
2023-01-29T09:00:56.651Z,101024.02
2023-01-29T09:03:24.535Z,101027.67
2023-01-29T09:05:52.991Z,101026.67
2023-01-29T09:08:20.895Z,101030.80
2023-01-29T09:10:48.947Z,101034.62
2023-01-29T09:13:17.085Z,101036.04
2023-01-29T09:15:45.171Z,101037.90
2023-01-29T09:18:13.182Z,101035.64
2023-01-29T09:20:41.907Z,101028.49
2023-01-29T09:23:11.812Z,101025.47
2023-01-29T09:25:43.041Z,101024.64
2023-01-29T09:28:11.946Z,101023.96
2023-01-29T09:30:41.369Z,101032.08
2023-01-29T09:33:09.909Z,101037.11
2023-01-29T09:35:41.167Z,101034.02
2023-01-29T09:38:10.907Z,101034.72
2023-01-29T09:41:14.376Z,101038.14
2023-01-29T09:43:50.192Z,101040.00
2023-01-29T09:46:40.039Z,101036.71
2023-01-29T09:49:24.840Z,101032.55
2023-01-29T09:52:05.800Z,101033.84
2023-01-29T09:54:45.651Z,101033.77
2023-01-29T09:57:23.044Z,101039.45
2023-01-29T09:59:51.276Z,101042.90
2023-01-29T10:02:52.585Z,101044.96
2023-01-29T10:05:26.930Z,101046.74
2023-01-29T10:08:24.817Z,101047.49
2023-01-29T10:11:08.160Z,101047.63
2023-01-29T10:13:43.227Z,101046.89
2023-01-29T10:16:49.186Z,101046.83
2023-01-29T10:19:49.175Z,101052.45
2023-01-29T10:22:31.551Z,101059.95
2023-01-29T10:25:21.019Z,101060.35
2023-01-29T10:27:53.160Z,101063.29
2023-01-29T10:30:46.479Z,101063.05
2023-01-29T10:33:26.380Z,101059.94
2023-01-29T10:36:01.195Z,101057.88
2023-01-29T10:38:46.370Z,101056.84
2023-01-29T10:41:39.531Z,101060.31
2023-01-29T10:44:07.655Z,101061.02
2023-01-29T10:46:53.543Z,101059.84
2023-01-29T10:49:30.223Z,101061.02
2023-01-29T10:52:05.082Z,101059.45
2023-01-29T10:54:59.158Z,101053.77
2023-01-29T10:57:45.965Z,101050.23
2023-01-29T11:00:24.945Z,101048.19
2023-01-29T11:02:53.878Z,101047.73
2023-01-29T11:05:37.530Z,101043.15
2023-01-29T11:08:11.643Z,101041.08
2023-01-29T11:11:12.687Z,101044.27
2023-01-29T11:13:49.049Z,101038.91
2023-01-29T11:16:17.092Z,101033.89
2023-01-29T11:18:54.902Z,101031.42
2023-01-29T11:21:25.032Z,101026.27
2023-01-29T11:24:06.629Z,101019.86
2023-01-29T11:26:40.760Z,101023.63
2023-01-29T11:29:44.702Z,101022.27
2023-01-29T11:32:19.224Z,101017.20
2023-01-29T11:35:16.456Z,101013.45
2023-01-29T11:37:46.010Z,101007.58
2023-01-29T11:40:20.574Z,101007.74
2023-01-29T11:42:49.838Z,101004.27
2023-01-29T11:45:20.838Z,101004.55
2023-01-29T11:47:53.926Z,101003.45
2023-01-29T11:50:29.270Z,101003.26
2023-01-29T11:52:59.804Z,100998.59
2023-01-29T11:55:40.981Z,101000.11
2023-01-29T11:58:29.767Z,100993.19
2023-01-29T12:00:59.504Z,100991.61
2023-01-29T12:03:34.375Z,100992.05
2023-01-29T12:06:05.875Z,100995.29
2023-01-29T12:08:39.029Z,100997.85
2023-01-29T12:11:10.420Z,101002.29
2023-01-29T12:13:40.962Z,101003.47
2023-01-29T12:16:25.753Z,100998.11
2023-01-29T12:19:12.061Z,100995.70
2023-01-29T12:21:56.205Z,100994.01
2023-01-29T12:24:36.372Z,100990.40
2023-01-29T12:27:24.538Z,100988.94
2023-01-29T12:30:02.214Z,100986.44
2023-01-29T12:32:38.363Z,100985.71
2023-01-29T12:35:18.093Z,100986.02
2023-01-29T12:37:57.509Z,100982.05
2023-01-29T12:40:32.003Z,100978.77
2023-01-29T12:43:06.953Z,100977.04
2023-01-29T12:45:37.779Z,100978.77
2023-01-29T12:48:10.551Z,100979.12
2023-01-29T12:50:39.530Z,100981.84
2023-01-29T12:53:20.549Z,100980.77
2023-01-29T12:55:55.576Z,100983.79
2023-01-29T12:58:30.334Z,100981.82
2023-01-29T13:01:06.526Z,100980.02
2023-01-29T13:03:45.835Z,100984.86
2023-01-29T13:06:18.371Z,100980.35
2023-01-29T13:08:55.540Z,100981.55
2023-01-29T13:11:34.452Z,100984.44
2023-01-29T13:14:19.713Z,100984.41
2023-01-29T13:16:53.364Z,100985.10
2023-01-29T13:19:33.156Z,100985.16
2023-01-29T13:22:05.819Z,100989.84
2023-01-29T13:24:40.187Z,100986.98
2023-01-29T13:27:20.519Z,100984.41
2023-01-29T13:29:48.924Z,100984.77
2023-01-29T13:32:23.583Z,100979.14
2023-01-29T13:34:55.089Z,100972.26
2023-01-29T13:37:34.571Z,100969.45
2023-01-29T13:40:05.747Z,100967.25
2023-01-29T13:42:40.295Z,100971.21
2023-01-29T13:45:17.620Z,100973.09
2023-01-29T13:47:46.912Z,100971.00
2023-01-29T13:50:36.326Z,100969.78
2023-01-29T13:53:08.485Z,100972.54
2023-01-29T13:55:39.377Z,100971.02
2023-01-29T13:58:38.332Z,100969.63
2023-01-29T14:01:06.617Z,100966.89
2023-01-29T14:04:03.331Z,100965.00
2023-01-29T14:06:45.352Z,100963.94
2023-01-29T14:09:55.319Z,100960.31
2023-01-29T14:12:23.523Z,100961.34
2023-01-29T14:15:04.458Z,100963.69
2023-01-29T14:17:32.401Z,100961.63
2023-01-29T14:20:19.926Z,100958.39
2023-01-29T14:22:59.664Z,100959.63
2023-01-29T14:25:35.144Z,100963.94
2023-01-29T14:28:13.956Z,100963.95
2023-01-29T14:30:48.049Z,100968.48
2023-01-29T14:33:35.107Z,100969.50
2023-01-29T14:36:11.947Z,100966.39
2023-01-29T14:38:47.437Z,100963.94
2023-01-29T14:41:29.932Z,100960.16
2023-01-29T14:44:35.944Z,100962.07
2023-01-29T14:47:04.900Z,100969.11
2023-01-29T14:49:54.958Z,100966.70
2023-01-29T14:52:28.376Z,100971.63
2023-01-29T14:55:01.042Z,100973.85
2023-01-29T14:57:30.947Z,100973.15
2023-01-29T15:00:03.732Z,100973.50
2023-01-29T15:02:40.341Z,100974.67
2023-01-29T15:05:17.323Z,100978.63
2023-01-29T15:07:55.788Z,100974.90
2023-01-29T15:11:13.627Z,100973.86
2023-01-29T15:13:52.291Z,100972.02
2023-01-29T15:16:46.213Z,100971.19
2023-01-29T15:19:23.507Z,100970.88
2023-01-29T15:22:12.939Z,100972.39
2023-01-29T15:24:42.952Z,100969.29
2023-01-29T15:27:20.816Z,100967.57
2023-01-29T15:29:57.404Z,100966.54
2023-01-29T15:32:33.621Z,100966.73
2023-01-29T15:35:11.429Z,100962.08
2023-01-29T15:37:40.184Z,100957.64
2023-01-29T15:40:16.022Z,100954.70
2023-01-29T15:42:48.421Z,100954.54
2023-01-29T15:45:27.354Z,100960.52
2023-01-29T15:48:00.448Z,100963.41
2023-01-29T15:50:29.494Z,100967.32
2023-01-29T15:53:00.997Z,100969.71
2023-01-29T15:55:31.938Z,100973.83
2023-01-29T15:58:01.246Z,100976.27
2023-01-29T16:00:30.641Z,100978.00
2023-01-29T16:03:01.578Z,100979.38
2023-01-29T16:05:33.278Z,100982.31
2023-01-29T16:08:01.605Z,100986.98
2023-01-29T16:10:32.381Z,100984.61
2023-01-29T16:13:02.836Z,100983.56
2023-01-29T16:15:36.298Z,100978.94
2023-01-29T16:18:39.527Z,100974.65
2023-01-29T16:21:17.984Z,100978.00
2023-01-29T16:23:50.109Z,100982.38
2023-01-29T16:26:25.105Z,100978.45
2023-01-29T16:28:53.122Z,100978.80
2023-01-29T16:31:32.228Z,100977.57
2023-01-29T16:34:07.672Z,100976.53
2023-01-29T16:36:36.400Z,100981.98
2023-01-29T16:39:35.633Z,100983.14
2023-01-29T16:42:26.530Z,100984.67
2023-01-29T16:44:59.177Z,100987.23
2023-01-29T16:47:34.839Z,100985.67
2023-01-29T16:50:03.024Z,100990.29
2023-01-29T16:52:34.004Z,100993.54
2023-01-29T16:55:20.263Z,100998.01
2023-01-29T16:57:54.236Z,100998.05
2023-01-29T17:00:26.409Z,100999.96
2023-01-29T17:03:07.708Z,101002.18
2023-01-29T17:05:38.119Z,101009.19
2023-01-29T17:08:07.425Z,101011.77
2023-01-29T17:10:36.255Z,101010.91
2023-01-29T17:13:15.536Z,101015.08
2023-01-29T17:15:43.901Z,101013.03
2023-01-29T17:18:22.740Z,101021.98
2023-01-29T17:20:53.183Z,101021.14
2023-01-29T17:23:22.226Z,101017.73
2023-01-29T17:25:50.271Z,101015.35
2023-01-29T17:28:19.146Z,101012.95
2023-01-29T17:31:00.359Z,101012.98
2023-01-29T17:33:35.574Z,101016.42
2023-01-29T17:36:04.180Z,101015.92
2023-01-29T17:38:32.121Z,101013.84
2023-01-29T17:41:06.276Z,101011.27
2023-01-29T17:43:34.942Z,101006.98
2023-01-29T17:46:03.176Z,101004.04
2023-01-29T17:48:31.507Z,101001.61
2023-01-29T17:51:03.349Z,101002.62
2023-01-29T17:53:44.785Z,101003.80
2023-01-29T17:56:16.463Z,101007.56
2023-01-29T17:58:44.659Z,101007.02
2023-01-29T18:01:13.035Z,101002.71
2023-01-29T18:03:40.957Z,101002.88
2023-01-29T18:06:10.094Z,101003.41
2023-01-29T18:08:39.748Z,101003.77
2023-01-29T18:11:12.735Z,101003.79
2023-01-29T18:13:41.995Z,101006.87
2023-01-29T18:16:10.049Z,101005.13
2023-01-29T18:18:38.215Z,101004.45
2023-01-29T18:21:08.002Z,101001.52
2023-01-29T18:23:36.352Z,101001.16
2023-01-29T18:26:04.741Z,101001.15
2023-01-29T18:28:33.101Z,101004.23
2023-01-29T18:31:02.614Z,100998.56
2023-01-29T18:33:31.653Z,100996.84
2023-01-29T18:36:00.532Z,100996.34
2023-01-29T18:38:28.976Z,100995.48
2023-01-29T18:41:03.836Z,100992.89
2023-01-29T18:43:32.084Z,100996.98
2023-01-29T18:46:00.448Z,100996.30
2023-01-29T18:48:29.455Z,100994.76
2023-01-29T18:50:58.120Z,100993.04
2023-01-29T18:53:26.855Z,100991.33
2023-01-29T18:56:00.820Z,100994.41
2023-01-29T18:58:35.720Z,100989.79
2023-01-29T19:01:09.677Z,100987.91
2023-01-29T19:03:39.412Z,100992.59
2023-01-29T19:06:10.160Z,100992.73
2023-01-29T19:08:38.961Z,100990.15
2023-01-29T19:11:09.316Z,100992.52
2023-01-29T19:13:38.525Z,100994.04
2023-01-29T19:16:09.124Z,100992.48
2023-01-29T19:18:37.476Z,100992.48
2023-01-29T19:21:10.760Z,100987.67
2023-01-29T19:23:39.771Z,100985.77
2023-01-29T19:26:07.901Z,100985.27
2023-01-29T19:28:36.508Z,100985.43
2023-01-29T19:31:04.518Z,100985.77
2023-01-29T19:33:32.976Z,100984.05
2023-01-29T19:36:01.362Z,100982.48
2023-01-29T19:38:33.474Z,100976.98
2023-01-29T19:41:01.820Z,100973.20
2023-01-29T19:43:33.334Z,100973.39
2023-01-29T19:46:03.002Z,100969.63
2023-01-29T19:48:31.230Z,100966.52
2023-01-29T19:51:02.318Z,100968.73
2023-01-29T19:53:31.529Z,100968.90
2023-01-29T19:56:02.236Z,100967.98
2023-01-29T19:58:30.951Z,100968.45
2023-01-29T20:01:22.516Z,100967.23
2023-01-29T20:03:51.239Z,100960.48
2023-01-29T20:06:23.230Z,100957.70
2023-01-29T20:08:51.861Z,100955.83
2023-01-29T20:11:23.317Z,100950.20
2023-01-29T20:13:52.761Z,100954.16
2023-01-29T20:16:22.419Z,100951.27
2023-01-29T20:18:50.819Z,100947.98
2023-01-29T20:21:23.789Z,100950.05
2023-01-29T20:23:52.403Z,100952.48
2023-01-29T20:26:22.236Z,100951.98
2023-01-29T20:28:50.519Z,100946.34
2023-01-29T20:31:18.901Z,100948.36
2023-01-29T20:33:46.871Z,100945.98
2023-01-29T20:36:15.244Z,100947.05
2023-01-29T20:38:43.697Z,100942.63
2023-01-29T20:41:16.941Z,100937.18
2023-01-29T20:43:47.279Z,100935.81
2023-01-29T20:46:15.634Z,100936.33
2023-01-29T20:48:43.842Z,100939.40
2023-01-29T20:51:15.680Z,100945.94
2023-01-29T20:53:46.273Z,100942.02
2023-01-29T20:56:16.270Z,100949.09
2023-01-29T20:58:47.097Z,100947.36
2023-01-29T21:01:18.060Z,100946.16
2023-01-29T21:03:47.377Z,100943.79
2023-01-29T21:06:16.002Z,100941.73
2023-01-29T21:08:44.214Z,100933.98
2023-01-29T21:11:12.204Z,100936.56
2023-01-29T21:13:40.555Z,100932.95
2023-01-29T21:16:11.037Z,100931.73
2023-01-29T21:18:39.767Z,100929.80
2023-01-29T21:21:07.756Z,100926.02
2023-01-29T21:23:36.014Z,100931.86
2023-01-29T21:26:05.862Z,100935.46
2023-01-29T21:28:34.609Z,100936.19
2023-01-29T21:31:08.588Z,100931.55
2023-01-29T21:33:37.418Z,100929.17
2023-01-29T21:36:06.825Z,100927.11
2023-01-29T21:38:34.852Z,100920.57
2023-01-29T21:41:06.585Z,100918.67
2023-01-29T21:43:35.130Z,100913.52
2023-01-29T21:46:06.115Z,100909.71
2023-01-29T21:48:34.714Z,100910.06
2023-01-29T21:51:03.092Z,100903.02
2023-01-29T21:53:31.210Z,100901.80
2023-01-29T21:56:01.299Z,100899.38
2023-01-29T21:58:30.169Z,100892.11
2023-01-29T22:01:35.549Z,100890.50
2023-01-29T22:03:47.720Z,100891.80
2023-01-29T22:06:15.944Z,100899.29
2023-01-29T22:08:44.188Z,100898.54
2023-01-29T22:11:12.160Z,100890.44
2023-01-29T22:13:40.343Z,100894.70
2023-01-29T22:16:08.682Z,100893.14
2023-01-29T22:18:37.139Z,100893.31
2023-01-29T22:21:05.907Z,100892.76
2023-01-29T22:23:34.136Z,100894.29
2023-01-29T22:26:04.807Z,100890.67
2023-01-29T22:28:35.226Z,100890.19
2023-01-29T22:31:05.755Z,100891.58
2023-01-29T22:33:34.334Z,100894.31
2023-01-29T22:36:02.701Z,100898.24
2023-01-29T22:38:30.856Z,100899.95
2023-01-29T22:41:00.275Z,100897.36
2023-01-29T22:43:29.419Z,100894.24
2023-01-29T22:45:58.026Z,100890.81
2023-01-29T22:48:27.124Z,100891.30
2023-01-29T22:51:12.395Z,100889.59
2023-01-29T22:53:52.249Z,100888.75
2023-01-29T22:56:25.272Z,100887.70
2023-01-29T22:58:56.299Z,100882.89
2023-01-29T23:01:27.017Z,100881.52
2023-01-29T23:03:55.073Z,100878.46
2023-01-29T23:06:23.901Z,100880.55
2023-01-29T23:08:52.337Z,100879.17
2023-01-29T23:11:23.590Z,100870.60
2023-01-29T23:13:54.416Z,100864.25
2023-01-29T23:16:26.789Z,100863.41
2023-01-29T23:18:56.808Z,100863.95
2023-01-29T23:21:25.962Z,100869.63
2023-01-29T23:23:56.978Z,100870.13
2023-01-29T23:26:44.440Z,100877.67
2023-01-29T23:29:15.959Z,100878.21
2023-01-29T23:31:44.519Z,100879.42
2023-01-29T23:34:14.299Z,100882.70
2023-01-29T23:36:42.897Z,100883.38
2023-01-29T23:39:10.996Z,100879.78
2023-01-29T23:41:38.978Z,100872.23
2023-01-29T23:44:07.225Z,100867.05
2023-01-29T23:46:35.337Z,100866.17
2023-01-29T23:49:03.945Z,100859.83
2023-01-29T23:51:32.117Z,100855.90
2023-01-29T23:54:00.293Z,100852.33
2023-01-29T23:56:28.518Z,100846.34
2023-01-29T23:58:58.320Z,100836.56
